sensor_id;sensor_type;location;lat;lon;timestamp;P1;durP1;ratioP1;P2;durP2;ratioP2
19173;SDS011;9719;49.322;8.536;2023-05-02T00:03:10;2.03;;;1.85;;
19173;SDS011;9719;49.322;8.536;2023-05-02T00:08:13;1.90;;;1.80;;
19173;SDS011;9719;49.322;8.536;2023-05-02T00:13:15;2.30;;;1.75;;
19173;SDS011;9719;49.322;8.536;2023-05-02T00:18:17;2.20;;;2.00;;
19173;SDS011;9719;49.322;8.536;2023-05-02T00:23:20;2.22;;;2.10;;
19173;SDS011;9719;49.322;8.536;2023-05-02T00:28:21;2.05;;;1.85;;
19173;SDS011;9719;49.322;8.536;2023-05-02T00:33:25;1.67;;;1.58;;
19173;SDS011;9719;49.322;8.536;2023-05-02T00:38:28;1.63;;;1.52;;
19173;SDS011;9719;49.322;8.536;2023-05-02T00:43:30;1.48;;;1.38;;
19173;SDS011;9719;49.322;8.536;2023-05-02T00:48:32;2.20;;;1.58;;
19173;SDS011;9719;49.322;8.536;2023-05-02T00:53:36;1.90;;;1.58;;
19173;SDS011;9719;49.322;8.536;2023-05-02T00:58:38;1.70;;;1.42;;
19173;SDS011;9719;49.322;8.536;2023-05-02T01:03:43;1.90;;;1.70;;
19173;SDS011;9719;49.322;8.536;2023-05-02T01:08:59;1.70;;;1.42;;
19173;SDS011;9719;49.322;8.536;2023-05-02T01:14:09;1.40;;;1.25;;
19173;SDS011;9719;49.322;8.536;2023-05-02T01:19:18;1.77;;;1.67;;
19173;SDS011;9719;49.322;8.536;2023-05-02T01:24:28;1.90;;;1.80;;
19173;SDS011;9719;49.322;8.536;2023-05-02T01:29:36;1.80;;;1.60;;
19173;SDS011;9719;49.322;8.536;2023-05-02T01:34:40;1.67;;;1.55;;
19173;SDS011;9719;49.322;8.536;2023-05-02T01:39:43;1.88;;;1.77;;
19173;SDS011;9719;49.322;8.536;2023-05-02T01:44:48;1.85;;;1.55;;
19173;SDS011;9719;49.322;8.536;2023-05-02T01:49:52;1.38;;;1.33;;
19173;SDS011;9719;49.322;8.536;2023-05-02T01:54:54;2.60;;;1.48;;
19173;SDS011;9719;49.322;8.536;2023-05-02T02:00:00;1.60;;;1.50;;
19173;SDS011;9719;49.322;8.536;2023-05-02T02:05:04;1.50;;;1.33;;
19173;SDS011;9719;49.322;8.536;2023-05-02T02:10:07;1.80;;;1.70;;
19173;SDS011;9719;49.322;8.536;2023-05-02T02:15:12;1.45;;;1.35;;
19173;SDS011;9719;49.322;8.536;2023-05-02T02:20:19;3.33;;;1.67;;
19173;SDS011;9719;49.322;8.536;2023-05-02T02:25:22;1.80;;;1.67;;
19173;SDS011;9719;49.322;8.536;2023-05-02T02:30:26;2.10;;;2.00;;
19173;SDS011;9719;49.322;8.536;2023-05-02T02:35:29;1.95;;;1.83;;
19173;SDS011;9719;49.322;8.536;2023-05-02T02:40:37;1.48;;;1.38;;
19173;SDS011;9719;49.322;8.536;2023-05-02T02:45:47;1.55;;;1.45;;
19173;SDS011;9719;49.322;8.536;2023-05-02T02:50:58;1.50;;;1.40;;
19173;SDS011;9719;49.322;8.536;2023-05-02T02:56:10;1.70;;;1.60;;
19173;SDS011;9719;49.322;8.536;2023-05-02T03:01:18;1.40;;;1.25;;
19173;SDS011;9719;49.322;8.536;2023-05-02T03:06:21;1.48;;;1.38;;
19173;SDS011;9719;49.322;8.536;2023-05-02T03:11:24;1.50;;;1.40;;
19173;SDS011;9719;49.322;8.536;2023-05-02T03:16:32;1.67;;;1.55;;
19173;SDS011;9719;49.322;8.536;2023-05-02T03:21:37;1.45;;;1.38;;
19173;SDS011;9719;49.322;8.536;2023-05-02T03:26:39;3.38;;;1.58;;
19173;SDS011;9719;49.322;8.536;2023-05-02T03:31:42;2.15;;;2.05;;
19173;SDS011;9719;49.322;8.536;2023-05-02T03:36:44;1.95;;;1.75;;
19173;SDS011;9719;49.322;8.536;2023-05-02T03:41:45;1.30;;;1.20;;
19173;SDS011;9719;49.322;8.536;2023-05-02T03:46:48;2.08;;;1.88;;
19173;SDS011;9719;49.322;8.536;2023-05-02T03:51:50;1.75;;;1.65;;
19173;SDS011;9719;49.322;8.536;2023-05-02T03:56:52;1.85;;;1.75;;
19173;SDS011;9719;49.322;8.536;2023-05-02T04:02:00;1.55;;;1.45;;
19173;SDS011;9719;49.322;8.536;2023-05-02T04:07:01;1.48;;;1.45;;
19173;SDS011;9719;49.322;8.536;2023-05-02T04:12:04;2.47;;;2.28;;
19173;SDS011;9719;49.322;8.536;2023-05-02T04:17:07;1.77;;;1.67;;
19173;SDS011;9719;49.322;8.536;2023-05-02T04:22:08;1.90;;;1.77;;
19173;SDS011;9719;49.322;8.536;2023-05-02T04:27:11;1.40;;;1.30;;
19173;SDS011;9719;49.322;8.536;2023-05-02T04:32:14;1.60;;;1.50;;
19173;SDS011;9719;49.322;8.536;2023-05-02T04:37:15;1.90;;;1.80;;
19173;SDS011;9719;49.322;8.536;2023-05-02T04:42:17;1.60;;;1.50;;
19173;SDS011;9719;49.322;8.536;2023-05-02T04:47:20;2.17;;;2.00;;
19173;SDS011;9719;49.322;8.536;2023-05-02T04:52:22;2.33;;;2.22;;
19173;SDS011;9719;49.322;8.536;2023-05-02T04:57:24;2.65;;;2.10;;
19173;SDS011;9719;49.322;8.536;2023-05-02T05:02:27;3.28;;;2.10;;
19173;SDS011;9719;49.322;8.536;2023-05-02T05:07:28;1.80;;;1.70;;
19173;SDS011;9719;49.322;8.536;2023-05-02T05:12:30;2.42;;;2.22;;
19173;SDS011;9719;49.322;8.536;2023-05-02T05:17:33;2.22;;;1.98;;
19173;SDS011;9719;49.322;8.536;2023-05-02T05:22:37;2.33;;;1.95;;
19173;SDS011;9719;49.322;8.536;2023-05-02T05:27:40;2.78;;;2.50;;
19173;SDS011;9719;49.322;8.536;2023-05-02T05:32:43;2.90;;;2.67;;
19173;SDS011;9719;49.322;8.536;2023-05-02T05:37:45;2.85;;;2.10;;
19173;SDS011;9719;49.322;8.536;2023-05-02T05:42:46;3.65;;;2.30;;
19173;SDS011;9719;49.322;8.536;2023-05-02T05:47:49;3.65;;;2.22;;
19173;SDS011;9719;49.322;8.536;2023-05-02T05:52:51;2.75;;;2.55;;
19173;SDS011;9719;49.322;8.536;2023-05-02T05:57:53;8.63;;;2.47;;
19173;SDS011;9719;49.322;8.536;2023-05-02T06:02:56;2.50;;;2.30;;
19173;SDS011;9719;49.322;8.536;2023-05-02T06:07:57;2.63;;;2.42;;
19173;SDS011;9719;49.322;8.536;2023-05-02T06:12:59;4.78;;;3.28;;
19173;SDS011;9719;49.322;8.536;2023-05-02T06:18:02;4.85;;;3.65;;
19173;SDS011;9719;49.322;8.536;2023-05-02T06:23:04;4.85;;;3.70;;
19173;SDS011;9719;49.322;8.536;2023-05-02T06:28:06;5.10;;;4.72;;
19173;SDS011;9719;49.322;8.536;2023-05-02T06:33:09;5.45;;;4.18;;
19173;SDS011;9719;49.322;8.536;2023-05-02T06:38:11;5.15;;;4.43;;
19173;SDS011;9719;49.322;8.536;2023-05-02T06:43:13;6.63;;;5.15;;
19173;SDS011;9719;49.322;8.536;2023-05-02T06:48:17;6.57;;;5.78;;
19173;SDS011;9719;49.322;8.536;2023-05-02T06:53:18;10.75;;;6.07;;
19173;SDS011;9719;49.322;8.536;2023-05-02T06:58:20;10.32;;;7.28;;
19173;SDS011;9719;49.322;8.536;2023-05-02T07:03:23;10.18;;;9.10;;
19173;SDS011;9719;49.322;8.536;2023-05-02T07:08:25;10.57;;;9.35;;
19173;SDS011;9719;49.322;8.536;2023-05-02T07:13:26;14.50;;;9.63;;
19173;SDS011;9719;49.322;8.536;2023-05-02T07:18:29;16.02;;;10.43;;
19173;SDS011;9719;49.322;8.536;2023-05-02T07:23:31;12.90;;;10.07;;
19173;SDS011;9719;49.322;8.536;2023-05-02T07:28:32;16.13;;;11.85;;
19173;SDS011;9719;49.322;8.536;2023-05-02T07:33:36;16.05;;;10.55;;
19173;SDS011;9719;49.322;8.536;2023-05-02T07:38:37;15.63;;;9.95;;
19173;SDS011;9719;49.322;8.536;2023-05-02T07:43:39;16.35;;;12.02;;
19173;SDS011;9719;49.322;8.536;2023-05-02T07:48:42;14.45;;;10.38;;
19173;SDS011;9719;49.322;8.536;2023-05-02T07:53:44;15.25;;;10.60;;
19173;SDS011;9719;49.322;8.536;2023-05-02T07:58:45;17.98;;;11.50;;
19173;SDS011;9719;49.322;8.536;2023-05-02T08:03:48;16.10;;;12.02;;
19173;SDS011;9719;49.322;8.536;2023-05-02T08:08:50;13.00;;;10.18;;
19173;SDS011;9719;49.322;8.536;2023-05-02T08:13:52;16.45;;;11.50;;
19173;SDS011;9719;49.322;8.536;2023-05-02T08:18:55;17.80;;;11.38;;
19173;SDS011;9719;49.322;8.536;2023-05-02T08:23:57;14.88;;;10.20;;
19173;SDS011;9719;49.322;8.536;2023-05-02T08:28:58;17.20;;;11.60;;
19173;SDS011;9719;49.322;8.536;2023-05-02T08:34:04;13.18;;;9.65;;
19173;SDS011;9719;49.322;8.536;2023-05-02T08:39:06;16.40;;;11.55;;
19173;SDS011;9719;49.322;8.536;2023-05-02T08:44:08;13.27;;;10.45;;
19173;SDS011;9719;49.322;8.536;2023-05-02T08:49:11;12.52;;;10.65;;
19173;SDS011;9719;49.322;8.536;2023-05-02T08:54:15;14.02;;;10.38;;
19173;SDS011;9719;49.322;8.536;2023-05-02T08:59:19;13.30;;;11.27;;
19173;SDS011;9719;49.322;8.536;2023-05-02T09:04:22;15.13;;;9.75;;
19173;SDS011;9719;49.322;8.536;2023-05-02T09:09:28;14.25;;;10.70;;
19173;SDS011;9719;49.322;8.536;2023-05-02T09:14:31;17.08;;;10.95;;
19173;SDS011;9719;49.322;8.536;2023-05-02T09:19:34;12.23;;;8.68;;
19173;SDS011;9719;49.322;8.536;2023-05-02T09:24:36;14.00;;;9.30;;
19173;SDS011;9719;49.322;8.536;2023-05-02T09:29:38;12.77;;;8.23;;
19173;SDS011;9719;49.322;8.536;2023-05-02T09:34:43;9.63;;;7.90;;
19173;SDS011;9719;49.322;8.536;2023-05-02T09:40:05;10.90;;;8.63;;
19173;SDS011;9719;49.322;8.536;2023-05-02T09:45:17;12.02;;;9.32;;
19173;SDS011;9719;49.322;8.536;2023-05-02T09:50:35;12.40;;;8.57;;
19173;SDS011;9719;49.322;8.536;2023-05-02T09:55:37;12.18;;;7.72;;
19173;SDS011;9719;49.322;8.536;2023-05-02T10:00:39;8.45;;;7.65;;
19173;SDS011;9719;49.322;8.536;2023-05-02T10:05:44;10.05;;;7.53;;
19173;SDS011;9719;49.322;8.536;2023-05-02T10:10:49;11.20;;;7.78;;
19173;SDS011;9719;49.322;8.536;2023-05-02T10:15:54;11.18;;;7.93;;
19173;SDS011;9719;49.322;8.536;2023-05-02T10:21:04;10.15;;;7.68;;
19173;SDS011;9719;49.322;8.536;2023-05-02T10:26:09;9.50;;;8.27;;
19173;SDS011;9719;49.322;8.536;2023-05-02T10:31:12;11.57;;;8.23;;
19173;SDS011;9719;49.322;8.536;2023-05-02T10:36:20;11.30;;;8.95;;
19173;SDS011;9719;49.322;8.536;2023-05-02T10:41:24;11.27;;;8.35;;
19173;SDS011;9719;49.322;8.536;2023-05-02T10:46:29;8.98;;;8.13;;
19173;SDS011;9719;49.322;8.536;2023-05-02T10:51:33;7.85;;;7.03;;
19173;SDS011;9719;49.322;8.536;2023-05-02T10:56:35;7.55;;;6.70;;
19173;SDS011;9719;49.322;8.536;2023-05-02T11:02:05;8.32;;;6.65;;
19173;SDS011;9719;49.322;8.536;2023-05-02T11:07:46;11.80;;;7.47;;
19173;SDS011;9719;49.322;8.536;2023-05-02T11:12:48;7.53;;;6.53;;
19173;SDS011;9719;49.322;8.536;2023-05-02T11:17:57;9.15;;;6.63;;
19173;SDS011;9719;49.322;8.536;2023-05-02T11:28:41;8.30;;;6.45;;
19173;SDS011;9719;49.322;8.536;2023-05-02T11:33:54;7.45;;;4.60;;
19173;SDS011;9719;49.322;8.536;2023-05-02T11:38:57;6.40;;;5.05;;
19173;SDS011;9719;49.322;8.536;2023-05-02T11:44:02;5.40;;;4.50;;
19173;SDS011;9719;49.322;8.536;2023-05-02T11:49:04;6.80;;;5.10;;
19173;SDS011;9719;49.322;8.536;2023-05-02T11:54:08;7.22;;;6.20;;
19173;SDS011;9719;49.322;8.536;2023-05-02T11:59:18;7.90;;;5.25;;
19173;SDS011;9719;49.322;8.536;2023-05-02T12:04:20;7.47;;;4.00;;
19173;SDS011;9719;49.322;8.536;2023-05-02T12:09:24;4.03;;;3.72;;
19173;SDS011;9719;49.322;8.536;2023-05-02T12:14:26;4.75;;;3.53;;
19173;SDS011;9719;49.322;8.536;2023-05-02T12:19:28;4.85;;;3.80;;
19173;SDS011;9719;49.322;8.536;2023-05-02T12:24:32;3.50;;;3.17;;
19173;SDS011;9719;49.322;8.536;2023-05-02T12:29:38;3.38;;;2.83;;
19173;SDS011;9719;49.322;8.536;2023-05-02T12:34:41;2.90;;;2.60;;
19173;SDS011;9719;49.322;8.536;2023-05-02T12:39:44;2.70;;;2.28;;
19173;SDS011;9719;49.322;8.536;2023-05-02T12:44:46;1.85;;;1.75;;
19173;SDS011;9719;49.322;8.536;2023-05-02T12:49:51;2.58;;;2.38;;
19173;SDS011;9719;49.322;8.536;2023-05-02T12:54:57;2.83;;;2.40;;
19173;SDS011;9719;49.322;8.536;2023-05-02T13:00:16;3.50;;;3.20;;
19173;SDS011;9719;49.322;8.536;2023-05-02T13:05:18;4.88;;;3.30;;
19173;SDS011;9719;49.322;8.536;2023-05-02T13:10:21;3.28;;;2.53;;
19173;SDS011;9719;49.322;8.536;2023-05-02T13:15:24;5.28;;;2.20;;
19173;SDS011;9719;49.322;8.536;2023-05-02T13:20:25;2.80;;;2.25;;
19173;SDS011;9719;49.322;8.536;2023-05-02T13:25:29;1.83;;;1.33;;
19173;SDS011;9719;49.322;8.536;2023-05-02T13:30:30;1.95;;;1.52;;
19173;SDS011;9719;49.322;8.536;2023-05-02T13:35:32;1.98;;;1.42;;
19173;SDS011;9719;49.322;8.536;2023-05-02T13:40:35;3.40;;;2.65;;
19173;SDS011;9719;49.322;8.536;2023-05-02T13:45:37;3.35;;;2.40;;
19173;SDS011;9719;49.322;8.536;2023-05-02T13:50:39;4.30;;;2.97;;
19173;SDS011;9719;49.322;8.536;2023-05-02T13:55:42;4.55;;;2.33;;
19173;SDS011;9719;49.322;8.536;2023-05-02T14:00:43;2.83;;;2.22;;
19173;SDS011;9719;49.322;8.536;2023-05-02T14:05:46;1.42;;;1.33;;
19173;SDS011;9719;49.322;8.536;2023-05-02T14:10:49;2.13;;;1.92;;
19173;SDS011;9719;49.322;8.536;2023-05-02T14:15:51;1.30;;;1.30;;
19173;SDS011;9719;49.322;8.536;2023-05-02T14:20:53;2.38;;;1.52;;
19173;SDS011;9719;49.322;8.536;2023-05-02T14:25:58;1.90;;;1.73;;
19173;SDS011;9719;49.322;8.536;2023-05-02T14:31:01;2.10;;;1.40;;
19173;SDS011;9719;49.322;8.536;2023-05-02T14:36:03;1.38;;;1.27;;
19173;SDS011;9719;49.322;8.536;2023-05-02T14:41:06;1.65;;;1.42;;
19173;SDS011;9719;49.322;8.536;2023-05-02T14:46:08;1.63;;;1.27;;
19173;SDS011;9719;49.322;8.536;2023-05-02T14:51:09;2.55;;;1.42;;
19173;SDS011;9719;49.322;8.536;2023-05-02T14:56:12;2.53;;;1.73;;
19173;SDS011;9719;49.322;8.536;2023-05-02T15:01:16;1.83;;;1.52;;
19173;SDS011;9719;49.322;8.536;2023-05-02T15:06:18;3.65;;;1.85;;
19173;SDS011;9719;49.322;8.536;2023-05-02T15:11:21;2.38;;;2.13;;
19173;SDS011;9719;49.322;8.536;2023-05-02T15:16:23;3.88;;;1.70;;
19173;SDS011;9719;49.322;8.536;2023-05-02T15:21:25;2.75;;;2.15;;
19173;SDS011;9719;49.322;8.536;2023-05-02T15:26:29;2.40;;;2.03;;
19173;SDS011;9719;49.322;8.536;2023-05-02T15:31:30;2.15;;;1.55;;
19173;SDS011;9719;49.322;8.536;2023-05-02T15:36:32;3.03;;;1.88;;
19173;SDS011;9719;49.322;8.536;2023-05-02T15:41:37;2.15;;;1.60;;
19173;SDS011;9719;49.322;8.536;2023-05-02T15:46:39;3.30;;;1.80;;
19173;SDS011;9719;49.322;8.536;2023-05-02T15:51:45;3.35;;;1.70;;
19173;SDS011;9719;49.322;8.536;2023-05-02T15:56:48;2.40;;;1.23;;
19173;SDS011;9719;49.322;8.536;2023-05-02T16:01:50;1.02;;;1.02;;
19173;SDS011;9719;49.322;8.536;2023-05-02T16:06:51;1.25;;;1.15;;
19173;SDS011;9719;49.322;8.536;2023-05-02T16:11:54;1.15;;;1.13;;
19173;SDS011;9719;49.322;8.536;2023-05-02T16:16:56;1.27;;;1.00;;
19173;SDS011;9719;49.322;8.536;2023-05-02T16:21:58;1.02;;;1.02;;
19173;SDS011;9719;49.322;8.536;2023-05-02T16:27:01;1.27;;;1.02;;
19173;SDS011;9719;49.322;8.536;2023-05-02T16:32:03;1.45;;;1.15;;
19173;SDS011;9719;49.322;8.536;2023-05-02T16:37:07;3.33;;;1.88;;
19173;SDS011;9719;49.322;8.536;2023-05-02T16:42:10;1.60;;;1.50;;
19173;SDS011;9719;49.322;8.536;2023-05-02T16:47:12;1.85;;;1.60;;
19173;SDS011;9719;49.322;8.536;2023-05-02T16:52:13;1.63;;;1.30;;
19173;SDS011;9719;49.322;8.536;2023-05-02T16:57:16;1.65;;;1.15;;
19173;SDS011;9719;49.322;8.536;2023-05-02T17:02:20;1.48;;;1.33;;
19173;SDS011;9719;49.322;8.536;2023-05-02T17:07:21;1.45;;;1.33;;
19173;SDS011;9719;49.322;8.536;2023-05-02T17:12:24;1.20;;;1.05;;
19173;SDS011;9719;49.322;8.536;2023-05-02T17:17:26;1.58;;;1.23;;
19173;SDS011;9719;49.322;8.536;2023-05-02T17:22:28;1.83;;;1.27;;
19173;SDS011;9719;49.322;8.536;2023-05-02T17:27:31;2.22;;;1.85;;
19173;SDS011;9719;49.322;8.536;2023-05-02T17:32:33;2.20;;;2.05;;
19173;SDS011;9719;49.322;8.536;2023-05-02T17:37:36;1.45;;;1.25;;
19173;SDS011;9719;49.322;8.536;2023-05-02T17:42:42;1.50;;;1.42;;
19173;SDS011;9719;49.322;8.536;2023-05-02T17:47:44;1.58;;;1.48;;
19173;SDS011;9719;49.322;8.536;2023-05-02T17:52:46;3.70;;;1.73;;
19173;SDS011;9719;49.322;8.536;2023-05-02T18:51:56;1.63;;;1.52;;
19173;SDS011;9719;49.322;8.536;2023-05-02T18:56:58;1.58;;;1.48;;
19173;SDS011;9719;49.322;8.536;2023-05-02T19:02:01;4.05;;;1.45;;
19173;SDS011;9719;49.322;8.536;2023-05-02T19:07:04;2.47;;;1.55;;
19173;SDS011;9719;49.322;8.536;2023-05-02T19:12:06;1.45;;;1.35;;
19173;SDS011;9719;49.322;8.536;2023-05-02T19:17:07;1.42;;;1.33;;
19173;SDS011;9719;49.322;8.536;2023-05-02T19:22:10;1.38;;;1.33;;
19173;SDS011;9719;49.322;8.536;2023-05-02T19:27:13;1.95;;;1.80;;
19173;SDS011;9719;49.322;8.536;2023-05-02T19:32:15;1.48;;;1.38;;
19173;SDS011;9719;49.322;8.536;2023-05-02T19:37:18;1.92;;;1.70;;
19173;SDS011;9719;49.322;8.536;2023-05-02T19:42:20;1.95;;;1.70;;
19173;SDS011;9719;49.322;8.536;2023-05-02T19:47:21;1.92;;;1.83;;
19173;SDS011;9719;49.322;8.536;2023-05-02T19:52:25;1.60;;;1.50;;
19173;SDS011;9719;49.322;8.536;2023-05-02T19:57:27;2.05;;;1.83;;
19173;SDS011;9719;49.322;8.536;2023-05-02T20:02:29;2.00;;;1.80;;
19173;SDS011;9719;49.322;8.536;2023-05-02T20:07:33;1.73;;;1.63;;
19173;SDS011;9719;49.322;8.536;2023-05-02T20:12:35;1.52;;;1.38;;
19173;SDS011;9719;49.322;8.536;2023-05-02T20:17:37;1.80;;;1.70;;
19173;SDS011;9719;49.322;8.536;2023-05-02T20:22:40;1.60;;;1.30;;
19173;SDS011;9719;49.322;8.536;2023-05-02T20:27:43;1.23;;;1.23;;
19173;SDS011;9719;49.322;8.536;2023-05-02T20:32:45;2.55;;;2.35;;
19173;SDS011;9719;49.322;8.536;2023-05-02T20:37:48;2.55;;;2.38;;
19173;SDS011;9719;49.322;8.536;2023-05-02T20:42:50;1.70;;;1.60;;
19173;SDS011;9719;49.322;8.536;2023-05-02T20:47:51;2.08;;;1.95;;
19173;SDS011;9719;49.322;8.536;2023-05-02T20:52:54;2.30;;;1.70;;
19173;SDS011;9719;49.322;8.536;2023-05-02T20:57:56;2.10;;;2.00;;
19173;SDS011;9719;49.322;8.536;2023-05-02T21:02:58;1.85;;;1.70;;
19173;SDS011;9719;49.322;8.536;2023-05-02T21:08:01;2.35;;;2.15;;
19173;SDS011;9719;49.322;8.536;2023-05-02T21:13:02;4.05;;;2.20;;
19173;SDS011;9719;49.322;8.536;2023-05-02T21:18:04;1.65;;;1.55;;
19173;SDS011;9719;49.322;8.536;2023-05-02T21:23:08;1.80;;;1.70;;
19173;SDS011;9719;49.322;8.536;2023-05-02T21:28:10;1.92;;;1.83;;
19173;SDS011;9719;49.322;8.536;2023-05-02T21:33:12;1.88;;;1.77;;
19173;SDS011;9719;49.322;8.536;2023-05-02T21:38:17;1.70;;;1.60;;
19173;SDS011;9719;49.322;8.536;2023-05-02T21:43:19;3.38;;;2.08;;
19173;SDS011;9719;49.322;8.536;2023-05-02T21:48:21;2.65;;;1.60;;
19173;SDS011;9719;49.322;8.536;2023-05-02T21:53:24;2.30;;;1.58;;
19173;SDS011;9719;49.322;8.536;2023-05-02T21:58:26;1.13;;;1.13;;
19173;SDS011;9719;49.322;8.536;2023-05-02T22:03:28;1.45;;;1.35;;
19173;SDS011;9719;49.322;8.536;2023-05-02T22:08:34;3.72;;;1.83;;
19173;SDS011;9719;49.322;8.536;2023-05-02T22:13:36;1.80;;;1.70;;
19173;SDS011;9719;49.322;8.536;2023-05-02T22:18:37;1.70;;;1.60;;
19173;SDS011;9719;49.322;8.536;2023-05-02T22:23:40;3.50;;;1.45;;
19173;SDS011;9719;49.322;8.536;2023-05-02T22:28:42;1.30;;;1.20;;
19173;SDS011;9719;49.322;8.536;2023-05-02T22:33:44;2.17;;;1.98;;
19173;SDS011;9719;49.322;8.536;2023-05-02T22:38:50;1.75;;;1.52;;
19173;SDS011;9719;49.322;8.536;2023-05-02T22:43:51;2.20;;;2.10;;
19173;SDS011;9719;49.322;8.536;2023-05-02T22:48:53;3.75;;;1.60;;
19173;SDS011;9719;49.322;8.536;2023-05-02T22:53:58;1.73;;;1.58;;
19173;SDS011;9719;49.322;8.536;2023-05-02T22:59:00;3.58;;;2.08;;
19173;SDS011;9719;49.322;8.536;2023-05-02T23:04:02;2.83;;;2.58;;
19173;SDS011;9719;49.322;8.536;2023-05-02T23:09:05;2.08;;;1.88;;
19173;SDS011;9719;49.322;8.536;2023-05-02T23:14:07;2.45;;;2.00;;
19173;SDS011;9719;49.322;8.536;2023-05-02T23:19:09;4.55;;;2.25;;
19173;SDS011;9719;49.322;8.536;2023-05-02T23:24:12;1.67;;;1.58;;
19173;SDS011;9719;49.322;8.536;2023-05-02T23:29:13;1.23;;;1.23;;
19173;SDS011;9719;49.322;8.536;2023-05-02T23:34:15;1.55;;;1.45;;
19173;SDS011;9719;49.322;8.536;2023-05-02T23:39:18;2.10;;;1.92;;
19173;SDS011;9719;49.322;8.536;2023-05-02T23:44:20;3.08;;;1.77;;
19173;SDS011;9719;49.322;8.536;2023-05-02T23:49:21;1.70;;;1.60;;
19173;SDS011;9719;49.322;8.536;2023-05-02T23:54:24;1.75;;;1.50;;
19173;SDS011;9719;49.322;8.536;2023-05-02T23:59:28;2.50;;;2.08;;
